Time;durP1;ratioP1;P1;durP2;ratioP2;P2;SDS_P1;SDS_P2;PMS_P1;PMS_P2;Temp;Humidity;BMP_temperature;BMP_pressure;BME280_temperature;BME280_humidity;BME280_pressure;Samples;Min_cycle;Max_cycle;Signal;HPM_P1;HPM_P2
2021/10/14 00:01:29;;;;;;;2.90;2.70;;;4.90;99.90;;;;;;474439;249;27559;-76
2021/10/14 00:03:30;;;;;;;2.83;2.62;;;4.80;99.90;;;;;;474429;249;27435;-75
2021/10/14 00:05:32;;;;;;;2.53;2.42;;;4.70;99.90;;;;;;474431;249;27474;-73
2021/10/14 00:07:33;;;;;;;2.58;2.37;;;4.70;99.90;;;;;;474365;249;27605;-73
2021/10/14 00:09:34;;;;;;;2.50;2.30;;;4.70;99.90;;;;;;474445;249;27518;-73
2021/10/14 00:11:35;;;;;;;2.37;2.25;;;4.70;99.90;;;;;;474451;249;27943;-72
2021/10/14 00:13:37;;;;;;;2.70;2.50;;;4.70;99.90;;;;;;474434;249;27959;-73
2021/10/14 00:15:38;;;;;;;2.75;2.55;;;4.70;99.90;;;;;;474385;249;27994;-73
2021/10/14 00:17:39;;;;;;;2.60;2.40;;;4.60;99.90;;;;;;474431;249;27571;-72
2021/10/14 00:19:40;;;;;;;3.78;2.92;;;4.60;99.90;;;;;;474447;249;27436;-74
2021/10/14 00:21:42;;;;;;;2.80;2.60;;;4.60;99.90;;;;;;474419;249;27455;-72
2021/10/14 00:23:43;;;;;;;2.65;2.55;;;4.50;99.90;;;;;;474411;249;27518;-73
2021/10/14 00:25:44;;;;;;;3.03;2.40;;;4.50;99.90;;;;;;474418;249;27463;-73
2021/10/14 00:27:45;;;;;;;3.55;3.25;;;4.50;99.90;;;;;;474417;249;27503;-72
2021/10/14 00:29:47;;;;;;;4.65;2.97;;;4.50;99.90;;;;;;474722;249;27587;-76
2021/10/14 00:31:48;;;;;;;3.00;2.80;;;4.40;99.90;;;;;;474450;249;27458;-73
2021/10/14 00:33:49;;;;;;;3.70;3.10;;;4.40;99.90;;;;;;474419;249;27990;-73
2021/10/14 00:35:50;;;;;;;2.50;2.30;;;4.40;99.90;;;;;;474460;249;27903;-73
2021/10/14 00:37:52;;;;;;;3.12;2.83;;;4.30;99.90;;;;;;474429;248;27542;-73
2021/10/14 00:39:53;;;;;;;3.47;3.10;;;4.40;99.90;;;;;;474422;249;27432;-72
2021/10/14 00:41:54;;;;;;;3.42;2.75;;;4.30;99.90;;;;;;474429;249;27534;-73
2021/10/14 00:43:56;;;;;;;2.87;2.67;;;4.30;99.90;;;;;;474411;249;27553;-73
2021/10/14 00:45:57;;;;;;;2.72;2.53;;;4.30;99.90;;;;;;474419;249;27468;-73
2021/10/14 00:47:58;;;;;;;3.30;2.40;;;4.30;99.90;;;;;;474433;249;27443;-73
2021/10/14 00:49:59;;;;;;;2.70;2.50;;;4.30;99.90;;;;;;474428;249;27456;-73
2021/10/14 00:52:00;;;;;;;3.47;2.55;;;4.30;99.90;;;;;;474432;249;27542;-73
2021/10/14 00:54:02;;;;;;;2.95;2.65;;;4.30;99.90;;;;;;474432;249;28629;-73
2021/10/14 00:56:03;;;;;;;3.22;2.95;;;4.30;99.90;;;;;;474452;249;27919;-73
2021/10/14 00:58:04;;;;;;;2.50;2.30;;;4.30;99.90;;;;;;474422;249;27927;-74
2021/10/14 01:00:05;;;;;;;2.60;2.40;;;4.30;99.90;;;;;;474434;249;27425;-73
2021/10/14 01:02:07;;;;;;;2.60;2.40;;;4.30;99.90;;;;;;474374;249;27546;-75
2021/10/14 01:04:08;;;;;;;3.05;2.65;;;4.30;99.90;;;;;;474421;249;27436;-75
2021/10/14 01:06:09;;;;;;;3.10;2.80;;;4.30;99.90;;;;;;474400;249;27550;-72
2021/10/14 01:08:10;;;;;;;2.60;2.40;;;4.20;99.90;;;;;;474419;249;27571;-75
2021/10/14 01:10:12;;;;;;;2.70;2.50;;;4.20;99.90;;;;;;474368;249;27443;-76
2021/10/14 01:12:13;;;;;;;2.97;2.78;;;4.20;99.90;;;;;;474337;249;27487;-75
2021/10/14 01:14:14;;;;;;;2.35;2.15;;;4.20;99.90;;;;;;474410;249;27597;-75
2021/10/14 01:16:15;;;;;;;2.65;2.45;;;4.20;99.90;;;;;;474406;249;27440;-72
2021/10/14 01:18:17;;;;;;;2.50;2.30;;;4.10;99.90;;;;;;474378;249;27480;-73
2021/10/14 01:20:18;;;;;;;3.15;2.33;;;4.10;99.90;;;;;;474381;249;28655;-73
2021/10/14 01:22:19;;;;;;;2.35;2.25;;;4.10;99.90;;;;;;474388;249;27968;-73
2021/10/14 01:24:20;;;;;;;2.65;2.45;;;4.10;99.90;;;;;;474384;249;29158;-73
2021/10/14 01:26:22;;;;;;;2.70;2.35;;;4.10;99.90;;;;;;474384;249;27885;-72
2021/10/14 01:28:23;;;;;;;2.55;2.35;;;4.00;99.90;;;;;;474357;249;27462;-73
2021/10/14 01:30:24;;;;;;;2.95;2.05;;;4.00;99.90;;;;;;474343;249;27354;-73
2021/10/14 01:32:25;;;;;;;3.62;2.83;;;4.00;99.90;;;;;;474381;249;27451;-73
2021/10/14 01:34:27;;;;;;;2.22;2.03;;;4.00;99.90;;;;;;474418;249;27480;-73
2021/10/14 01:36:28;;;;;;;2.53;2.33;;;4.00;99.90;;;;;;474395;249;27435;-73
2021/10/14 01:38:29;;;;;;;2.35;2.20;;;4.00;99.90;;;;;;474380;249;27471;-76
2021/10/14 01:40:30;;;;;;;2.37;2.17;;;3.90;99.90;;;;;;474420;249;27941;-75
2021/10/14 01:42:32;;;;;;;2.25;2.15;;;4.00;99.90;;;;;;474392;249;27445;-75
2021/10/14 01:44:33;;;;;;;2.50;2.30;;;4.00;99.90;;;;;;474385;249;27475;-76
2021/10/14 01:46:34;;;;;;;2.97;2.30;;;3.90;99.90;;;;;;474394;249;27856;-75
2021/10/14 01:48:35;;;;;;;2.62;2.42;;;3.90;99.90;;;;;;474375;249;27979;-75
2021/10/14 01:50:37;;;;;;;2.37;2.25;;;3.90;99.90;;;;;;474393;249;28059;-75
2021/10/14 01:52:38;;;;;;;2.75;2.55;;;3.90;99.90;;;;;;474381;249;29061;-75
2021/10/14 01:54:39;;;;;;;2.65;2.45;;;3.80;99.90;;;;;;474829;236;27545;-75
2021/10/14 01:56:40;;;;;;;2.10;1.90;;;3.90;99.90;;;;;;473478;251;27512;-73
2021/10/14 01:58:42;;;;;;;2.92;2.50;;;3.90;99.90;;;;;;473494;251;27463;-73
2021/10/14 02:00:43;;;;;;;1.90;1.80;;;3.80;99.90;;;;;;473467;251;27456;-72
2021/10/14 02:02:44;;;;;;;2.55;2.35;;;3.80;99.90;;;;;;483765;246;27475;-75
2021/10/14 02:04:45;;;;;;;2.22;2.00;;;3.80;99.90;;;;;;479143;248;27607;-75
2021/10/14 02:06:47;;;;;;;2.10;2.00;;;3.80;99.90;;;;;;483019;246;27486;-78
2021/10/14 02:08:48;;;;;;;2.20;2.10;;;3.80;99.90;;;;;;482966;246;27402;-75
2021/10/14 02:10:49;;;;;;;2.20;2.10;;;3.80;99.90;;;;;;482986;246;27533;-76
2021/10/14 02:12:50;;;;;;;2.30;2.10;;;3.80;99.90;;;;;;482809;246;27518;-75
2021/10/14 02:14:52;;;;;;;1.80;1.70;;;3.80;99.90;;;;;;482649;246;28109;-76
2021/10/14 02:16:53;;;;;;;2.45;2.35;;;3.80;99.90;;;;;;482378;246;28403;-75
2021/10/14 02:18:54;;;;;;;2.00;1.90;;;3.80;99.90;;;;;;482978;245;27938;-75
2021/10/14 02:20:55;;;;;;;2.10;2.00;;;3.90;99.90;;;;;;482996;246;29059;-75
2021/10/14 02:22:57;;;;;;;3.55;2.20;;;3.90;99.90;;;;;;482965;246;27558;-75
2021/10/14 02:24:58;;;;;;;2.40;2.20;;;3.90;99.90;;;;;;482971;246;27514;-73
2021/10/14 02:26:59;;;;;;;2.12;1.95;;;4.00;99.90;;;;;;482925;246;27449;-72
2021/10/14 02:29:00;;;;;;;1.98;1.87;;;4.00;99.90;;;;;;482990;246;27487;-72
2021/10/14 02:31:02;;;;;;;1.98;1.87;;;4.10;99.90;;;;;;482969;246;27530;-73
2021/10/14 02:33:03;;;;;;;2.03;1.92;;;4.10;99.90;;;;;;483071;246;27450;-76
2021/10/14 02:35:04;;;;;;;2.25;2.15;;;4.20;99.90;;;;;;483196;246;27426;-76
2021/10/14 02:37:05;;;;;;;2.03;1.92;;;4.20;99.90;;;;;;483009;246;28059;-75
2021/10/14 02:39:07;;;;;;;2.17;2.03;;;4.20;99.90;;;;;;482988;246;27490;-76
2021/10/14 02:41:08;;;;;;;2.20;2.10;;;4.20;99.90;;;;;;482975;246;27613;-75
2021/10/14 02:43:09;;;;;;;2.40;2.20;;;4.20;99.90;;;;;;482980;246;27945;-74
2021/10/14 02:45:10;;;;;;;3.17;2.03;;;4.30;99.90;;;;;;482979;246;28051;-73
2021/10/14 02:47:12;;;;;;;2.00;1.90;;;4.30;99.90;;;;;;483022;246;27922;-76
2021/10/14 02:49:13;;;;;;;2.10;2.00;;;4.20;99.90;;;;;;483008;246;29085;-76
2021/10/14 02:51:14;;;;;;;2.60;2.17;;;4.20;99.90;;;;;;482966;246;27570;-75
2021/10/14 02:53:15;;;;;;;2.58;2.10;;;4.10;99.90;;;;;;482976;246;27413;-76
2021/10/14 02:55:17;;;;;;;1.80;1.70;;;4.10;99.90;;;;;;482905;246;27587;-75
2021/10/14 02:57:18;;;;;;;2.05;1.95;;;4.00;99.90;;;;;;482978;246;27450;-76
2021/10/14 02:59:19;;;;;;;1.90;1.80;;;4.00;99.90;;;;;;482983;246;27415;-73
2021/10/14 03:01:20;;;;;;;2.10;2.00;;;4.00;99.90;;;;;;482993;246;27442;-76
2021/10/14 03:03:22;;;;;;;1.90;1.80;;;4.00;99.90;;;;;;483010;246;27416;-76
2021/10/14 03:05:23;;;;;;;1.87;1.77;;;4.00;99.90;;;;;;483000;246;27528;-75
2021/10/14 03:07:24;;;;;;;2.20;2.10;;;4.00;99.90;;;;;;482974;246;27987;-75
2021/10/14 03:09:25;;;;;;;2.20;2.10;;;3.90;99.90;;;;;;482981;246;27971;-75
2021/10/14 03:11:27;;;;;;;2.10;2.00;;;3.90;99.90;;;;;;482980;246;27920;-76
2021/10/14 03:13:28;;;;;;;2.15;2.05;;;3.90;99.90;;;;;;482975;246;28009;-75
2021/10/14 03:15:29;;;;;;;2.45;2.30;;;4.00;99.90;;;;;;482982;246;27469;-76
2021/10/14 03:17:30;;;;;;;2.30;2.20;;;4.00;99.90;;;;;;482966;246;27441;-76
2021/10/14 03:19:32;;;;;;;2.28;2.17;;;4.00;99.90;;;;;;482955;246;27466;-75
2021/10/14 03:21:33;;;;;;;2.28;2.17;;;4.00;99.90;;;;;;482950;246;27453;-75
2021/10/14 03:23:34;;;;;;;2.60;2.40;;;4.10;99.90;;;;;;482971;246;27666;-73
2021/10/14 03:25:35;;;;;;;2.60;2.40;;;4.10;99.90;;;;;;482936;246;27482;-73
2021/10/14 03:27:37;;;;;;;2.85;2.65;;;4.10;99.90;;;;;;482944;245;27478;-72
2021/10/14 03:29:38;;;;;;;2.42;2.15;;;4.10;99.90;;;;;;482951;246;27490;-73
2021/10/14 03:31:39;;;;;;;2.83;2.62;;;4.00;99.90;;;;;;482941;246;27514;-76
2021/10/14 03:33:40;;;;;;;2.60;2.45;;;4.10;99.90;;;;;;482934;246;27558;-75
2021/10/14 03:35:42;;;;;;;2.95;2.72;;;4.10;99.90;;;;;;482941;246;28074;-75
2021/10/14 03:37:46;;;;;;;3.25;2.83;;;4.20;99.90;;;;;;482946;246;28109;-74
2021/10/14 03:39:44;;;;;;;2.80;2.60;;;4.20;99.90;;;;;;482663;246;27970;-74
2021/10/14 03:41:45;;;;;;;3.00;2.72;;;4.30;99.90;;;;;;482924;246;27406;-75
2021/10/14 03:43:47;;;;;;;2.53;2.33;;;4.30;99.90;;;;;;482935;246;27520;-74
2021/10/14 03:45:48;;;;;;;2.50;2.33;;;4.40;99.90;;;;;;482948;246;27495;-74
2021/10/14 03:47:49;;;;;;;2.80;2.60;;;4.40;99.90;;;;;;482936;246;27538;-75
2021/10/14 03:49:50;;;;;;;3.03;2.72;;;4.50;99.90;;;;;;482932;246;27817;-75
2021/10/14 03:51:52;;;;;;;2.50;2.30;;;4.50;99.90;;;;;;482972;246;27505;-75
2021/10/14 03:53:53;;;;;;;2.95;2.75;;;4.50;99.90;;;;;;482955;246;27461;-74
2021/10/14 03:55:54;;;;;;;4.93;3.17;;;4.60;99.90;;;;;;482937;246;27414;-74
2021/10/14 03:57:55;;;;;;;3.20;2.90;;;4.60;99.90;;;;;;483012;246;27521;-74
2021/10/14 03:59:57;;;;;;;3.60;3.30;;;4.60;99.90;;;;;;482985;246;28751;-75
2021/10/14 04:01:58;;;;;;;4.30;3.40;;;4.60;99.90;;;;;;483005;246;27956;-75
2021/10/14 04:03:59;;;;;;;5.35;3.70;;;4.70;99.90;;;;;;482958;246;28018;-75
2021/10/14 04:06:00;;;;;;;4.43;2.95;;;4.70;99.90;;;;;;482812;246;27434;-74
2021/10/14 04:08:02;;;;;;;4.22;3.83;;;4.80;99.90;;;;;;482975;246;27542;-74
2021/10/14 04:10:03;;;;;;;3.70;3.10;;;4.80;99.90;;;;;;482971;246;27437;-74
2021/10/14 04:12:04;;;;;;;4.78;4.03;;;4.90;99.90;;;;;;482982;246;27484;-74
2021/10/14 04:14:05;;;;;;;4.12;3.70;;;5.00;99.90;;;;;;482956;246;27470;-75
2021/10/14 04:16:07;;;;;;;5.07;3.75;;;5.00;99.90;;;;;;482981;246;27418;-75
2021/10/14 04:18:08;;;;;;;4.32;3.83;;;5.00;99.90;;;;;;482958;246;27509;-74
2021/10/14 04:20:09;;;;;;;4.87;3.90;;;5.10;99.90;;;;;;482949;246;27442;-74
2021/10/14 04:22:10;;;;;;;6.22;4.57;;;5.10;99.90;;;;;;482923;246;27870;-74
2021/10/14 04:24:12;;;;;;;4.87;3.75;;;5.20;99.90;;;;;;482936;246;28008;-74
2021/10/14 04:26:13;;;;;;;5.70;4.53;;;5.20;99.90;;;;;;482954;246;27938;-75
2021/10/14 04:28:14;;;;;;;5.32;4.00;;;5.20;99.90;;;;;;482980;245;27411;-75
2021/10/14 04:30:15;;;;;;;3.95;3.65;;;5.20;99.90;;;;;;482962;246;27622;-74
2021/10/14 04:32:17;;;;;;;5.03;4.47;;;5.20;99.90;;;;;;482957;246;27553;-74
2021/10/14 04:34:18;;;;;;;4.10;3.70;;;5.20;99.90;;;;;;482979;246;27553;-74
2021/10/14 04:36:20;;;;;;;4.30;4.00;;;5.20;99.90;;;;;;482957;246;27606;-75
2021/10/14 04:38:20;;;;;;;4.82;4.30;;;5.30;99.90;;;;;;482965;246;27474;-75
2021/10/14 04:40:22;;;;;;;6.25;5.12;;;5.30;99.90;;;;;;482966;246;27530;-75
2021/10/14 04:42:23;;;;;;;4.82;4.32;;;5.30;99.90;;;;;;482964;246;27567;-75
2021/10/14 04:44:24;;;;;;;6.85;5.32;;;5.40;99.90;;;;;;482973;246;27908;-75
2021/10/14 04:46:26;;;;;;;6.65;5.32;;;5.40;99.90;;;;;;482955;245;28075;-75
2021/10/14 04:48:27;;;;;;;5.95;4.93;;;5.40;99.90;;;;;;482961;246;27486;-75
2021/10/14 04:50:28;;;;;;;5.78;5.20;;;5.50;99.90;;;;;;482960;246;27446;-74
2021/10/14 04:52:29;;;;;;;5.28;4.78;;;5.50;99.90;;;;;;482982;246;27471;-75
2021/10/14 04:54:31;;;;;;;4.72;4.30;;;5.50;99.90;;;;;;482948;246;27639;-74
2021/10/14 04:56:32;;;;;;;4.87;4.37;;;5.60;99.90;;;;;;482976;246;27926;-75
2021/10/14 04:58:33;;;;;;;6.55;4.80;;;5.60;99.90;;;;;;483019;246;27469;-75
2021/10/14 05:00:34;;;;;;;4.72;4.20;;;5.50;99.90;;;;;;482992;246;28049;-75
2021/10/14 05:02:36;;;;;;;4.93;4.43;;;5.50;99.90;;;;;;482954;246;27953;-75
2021/10/14 05:04:37;;;;;;;4.78;3.90;;;5.50;99.90;;;;;;482947;246;27606;-75
2021/10/14 05:06:38;;;;;;;3.90;3.33;;;5.50;99.90;;;;;;482956;246;27531;-74
2021/10/14 05:08:39;;;;;;;6.75;3.95;;;5.50;99.90;;;;;;482866;246;27494;-76
2021/10/14 05:10:41;;;;;;;5.10;4.37;;;5.50;99.90;;;;;;482986;245;27450;-75
2021/10/14 05:12:42;;;;;;;4.45;4.05;;;5.50;99.90;;;;;;482995;246;27468;-75
2021/10/14 05:14:43;;;;;;;4.70;4.30;;;5.50;99.90;;;;;;482984;246;27552;-75
2021/10/14 05:16:44;;;;;;;4.72;3.90;;;5.50;99.90;;;;;;483000;246;27390;-75
2021/10/14 05:18:46;;;;;;;4.32;3.92;;;5.50;99.90;;;;;;482980;246;27934;-74
2021/10/14 05:20:47;;;;;;;4.47;3.65;;;5.60;99.90;;;;;;482943;246;27992;-74
2021/10/14 05:22:48;;;;;;;3.85;3.45;;;5.50;99.90;;;;;;482947;246;27621;-75
2021/10/14 05:24:49;;;;;;;3.97;3.55;;;5.50;99.90;;;;;;482952;246;27585;-75
2021/10/14 05:26:51;;;;;;;4.20;3.80;;;5.50;99.90;;;;;;482941;246;27534;-75
2021/10/14 05:28:52;;;;;;;4.22;3.83;;;5.40;99.90;;;;;;482928;245;27494;-74
2021/10/14 05:30:53;;;;;;;3.72;3.40;;;5.50;99.90;;;;;;482948;246;27545;-74
2021/10/14 05:32:54;;;;;;;3.80;3.50;;;5.50;99.90;;;;;;482954;246;27434;-74
2021/10/14 05:34:56;;;;;;;6.20;3.95;;;5.50;99.90;;;;;;482962;246;27478;-74
2021/10/14 05:36:57;;;;;;;4.03;3.72;;;5.50;99.90;;;;;;482968;246;27957;-74
2021/10/14 05:38:58;;;;;;;4.47;4.07;;;5.60;99.90;;;;;;482967;246;27874;-75
2021/10/14 05:40:59;;;;;;;4.53;4.12;;;5.60;99.90;;;;;;482979;245;27537;-74
2021/10/14 05:43:01;;;;;;;4.50;4.10;;;5.70;99.90;;;;;;482980;246;27546;-75
2021/10/14 05:45:02;;;;;;;4.53;4.05;;;5.70;99.90;;;;;;482998;246;27486;-75
2021/10/14 05:47:03;;;;;;;5.00;4.45;;;5.80;99.90;;;;;;482991;246;27565;-75
2021/10/14 05:49:04;;;;;;;6.85;4.50;;;5.80;99.90;;;;;;482985;246;27426;-75
2021/10/14 05:51:06;;;;;;;5.70;5.10;;;5.90;99.90;;;;;;482940;246;27535;-74
2021/10/14 05:53:07;;;;;;;6.32;4.93;;;5.90;99.90;;;;;;482954;246;28010;-74
2021/10/14 05:55:08;;;;;;;4.95;4.30;;;5.90;99.90;;;;;;482972;246;27858;-74
2021/10/14 05:57:09;;;;;;;5.80;5.18;;;5.90;99.90;;;;;;482981;246;27453;-75
2021/10/14 05:59:11;;;;;;;4.80;4.30;;;5.90;99.90;;;;;;482965;245;27407;-74
2021/10/14 06:01:12;;;;;;;7.40;5.22;;;5.90;99.90;;;;;;482955;246;27524;-75
2021/10/14 06:03:13;;;;;;;6.18;5.00;;;5.90;99.90;;;;;;482997;246;27525;-75
2021/10/14 06:05:14;;;;;;;5.05;4.65;;;5.90;99.90;;;;;;482995;246;27494;-75
2021/10/14 06:07:16;;;;;;;5.00;4.37;;;5.90;99.90;;;;;;482989;245;27434;-75
2021/10/14 06:09:17;;;;;;;6.03;4.57;;;5.90;99.90;;;;;;482987;246;27438;-74
2021/10/14 06:11:18;;;;;;;6.65;5.03;;;5.90;99.90;;;;;;483022;245;28019;-74
2021/10/14 06:13:20;;;;;;;5.43;4.60;;;6.00;99.90;;;;;;483025;246;28008;-75
2021/10/14 06:15:21;;;;;;;7.22;5.78;;;6.00;99.90;;;;;;483006;246;27500;-75
2021/10/14 06:17:22;;;;;;;5.60;5.00;;;6.00;99.90;;;;;;482859;246;27609;-75
2021/10/14 06:19:23;;;;;;;5.80;5.12;;;6.00;99.90;;;;;;482588;246;27434;-74
2021/10/14 06:21:25;;;;;;;9.30;6.05;;;6.10;99.90;;;;;;482282;246;27541;-75
2021/10/14 06:23:26;;;;;;;6.55;5.40;;;6.10;99.90;;;;;;482772;245;27553;-75
2021/10/14 06:25:27;;;;;;;6.68;5.53;;;6.10;99.90;;;;;;482938;245;28927;-75
2021/10/14 06:27:28;;;;;;;6.93;5.55;;;6.10;99.90;;;;;;482947;246;27870;-74
2021/10/14 06:29:30;;;;;;;5.60;4.65;;;6.10;99.90;;;;;;483015;246;27423;-75
2021/10/14 06:31:31;;;;;;;6.37;4.80;;;6.10;99.90;;;;;;483011;246;27403;-74
2021/10/14 06:33:32;;;;;;;6.68;5.03;;;6.20;99.90;;;;;;483011;245;27442;-75
2021/10/14 06:35:33;;;;;;;7.57;5.45;;;6.20;99.90;;;;;;483014;246;27417;-74
2021/10/14 06:37:35;;;;;;;5.70;5.10;;;6.30;99.90;;;;;;482992;246;27402;-75
2021/10/14 06:39:36;;;;;;;6.60;4.90;;;6.30;99.90;;;;;;482986;245;27906;-75
2021/10/14 06:41:37;;;;;;;7.12;5.68;;;6.40;99.90;;;;;;482912;246;27879;-74
2021/10/14 06:43:38;;;;;;;7.12;5.47;;;6.40;99.90;;;;;;482849;246;27462;-74
2021/10/14 06:45:40;;;;;;;6.85;5.82;;;6.40;99.90;;;;;;482916;246;27523;-74
2021/10/14 06:47:41;;;;;;;6.60;5.90;;;6.50;99.90;;;;;;482907;246;27474;-75
2021/10/14 06:49:42;;;;;;;7.93;5.37;;;6.50;99.90;;;;;;482911;246;27557;-75
2021/10/14 06:51:43;;;;;;;8.30;6.10;;;6.50;99.90;;;;;;482951;246;27474;-75
2021/10/14 06:53:45;;;;;;;10.82;5.57;;;6.60;99.90;;;;;;482936;246;28076;-75
2021/10/14 06:55:46;;;;;;;7.25;5.78;;;6.60;99.90;;;;;;482932;246;28027;-75
2021/10/14 06:57:47;;;;;;;7.57;6.30;;;6.60;99.90;;;;;;482954;246;27407;-75
2021/10/14 06:59:48;;;;;;;8.80;5.70;;;6.70;99.90;;;;;;482962;246;27525;-74
2021/10/14 07:01:50;;;;;;;8.75;6.15;;;6.70;99.90;;;;;;482981;246;28833;-75
2021/10/14 07:03:51;;;;;;;7.57;6.10;;;6.80;99.90;;;;;;482967;246;27446;-75
2021/10/14 07:05:52;;;;;;;6.80;5.70;;;6.80;99.90;;;;;;482981;246;28788;-75
2021/10/14 07:07:53;;;;;;;7.43;5.95;;;6.90;99.90;;;;;;482983;246;27668;-75
2021/10/14 07:09:55;;;;;;;8.47;6.00;;;7.00;99.90;;;;;;482968;246;27906;-75
2021/10/14 07:11:59;;;;;;;8.00;6.43;;;7.00;99.90;;;;;;482997;246;28781;-75
2021/10/14 07:13:57;;;;;;;10.68;6.05;;;7.10;99.90;;;;;;482639;246;29214;-75
2021/10/14 07:15:58;;;;;;;7.20;6.33;;;7.10;99.90;;;;;;483006;246;27557;-75
2021/10/14 07:18:00;;;;;;;9.88;6.18;;;7.20;99.90;;;;;;482890;246;28416;-75
2021/10/14 07:20:01;;;;;;;6.83;6.13;;;7.20;99.90;;;;;;483006;246;27434;-75
2021/10/14 07:22:02;;;;;;;8.67;6.30;;;7.20;99.90;;;;;;483113;246;28247;-75
2021/10/14 07:24:03;;;;;;;8.43;6.30;;;7.30;99.90;;;;;;482995;246;27995;-75
2021/10/14 07:26:05;;;;;;;6.10;5.50;;;7.40;99.90;;;;;;482538;246;28504;-75
2021/10/14 07:28:06;;;;;;;9.20;5.90;;;7.40;99.90;;;;;;482625;246;27717;-75
2021/10/14 07:30:07;;;;;;;5.97;5.00;;;7.50;99.90;;;;;;482991;246;27797;-75
2021/10/14 07:32:08;;;;;;;7.47;5.33;;;7.50;99.90;;;;;;482948;246;28020;-75
2021/10/14 07:34:10;;;;;;;7.03;5.60;;;7.50;99.90;;;;;;482966;246;29218;-75
2021/10/14 07:36:11;;;;;;;9.83;5.90;;;7.60;99.90;;;;;;482970;245;28412;-75
2021/10/14 07:38:12;;;;;;;12.83;5.97;;;7.70;99.90;;;;;;482995;246;28242;-75
2021/10/14 07:40:13;;;;;;;8.00;5.77;;;7.70;99.90;;;;;;482964;246;28803;-76
2021/10/14 07:42:15;;;;;;;8.73;6.60;;;7.80;99.90;;;;;;482962;246;28545;-75
2021/10/14 07:44:17;;;;;;;7.40;5.77;;;7.80;99.90;;;;;;482966;246;27406;-75
2021/10/14 07:46:17;;;;;;;11.40;7.37;;;7.90;99.90;;;;;;482962;246;27934;-75
2021/10/14 07:48:18;;;;;;;10.00;6.60;;;7.90;99.90;;;;;;483002;246;27482;-75
2021/10/14 07:50:20;;;;;;;8.63;6.50;;;7.90;99.90;;;;;;482961;246;28000;-75
2021/10/14 07:52:21;;;;;;;8.30;6.33;;;7.90;99.90;;;;;;482977;246;28024;-75
2021/10/14 07:54:22;;;;;;;8.50;6.83;;;8.00;99.90;;;;;;482965;246;28017;-75
2021/10/14 07:56:23;;;;;;;10.77;6.83;;;8.00;99.90;;;;;;482925;246;27898;-75
2021/10/14 07:58:25;;;;;;;10.17;6.80;;;8.00;99.90;;;;;;482972;246;27892;-75
2021/10/14 08:00:26;;;;;;;12.70;6.83;;;8.00;99.90;;;;;;482963;245;27765;-75
2021/10/14 08:02:27;;;;;;;8.87;6.43;;;8.00;99.90;;;;;;482991;246;27442;-75
2021/10/14 08:04:28;;;;;;;7.20;5.77;;;8.00;99.90;;;;;;482832;246;28290;-75
2021/10/14 08:06:30;;;;;;;11.63;6.73;;;8.00;99.90;;;;;;482965;246;28336;-75
2021/10/14 08:08:31;;;;;;;8.93;6.50;;;8.00;99.90;;;;;;482965;246;28771;-75
2021/10/14 08:10:32;;;;;;;9.03;6.80;;;8.00;99.90;;;;;;482979;246;28426;-74
2021/10/14 08:12:33;;;;;;;8.63;6.50;;;8.00;99.90;;;;;;482977;246;28643;-75
2021/10/14 08:14:35;;;;;;;8.87;6.87;;;8.00;99.90;;;;;;482960;246;27990;-75
2021/10/14 08:16:36;;;;;;;10.90;7.27;;;8.00;99.90;;;;;;482965;246;28130;-75
2021/10/14 08:18:37;;;;;;;10.60;7.10;;;8.10;99.90;;;;;;482982;246;27921;-75
2021/10/14 08:20:38;;;;;;;9.03;6.70;;;8.10;99.90;;;;;;482983;246;27881;-75
2021/10/14 08:22:40;;;;;;;11.40;7.13;;;8.20;99.90;;;;;;482979;246;28050;-75
2021/10/14 08:24:41;;;;;;;11.70;7.33;;;8.30;99.90;;;;;;482989;246;27854;-75
2021/10/14 08:26:42;;;;;;;9.50;6.57;;;8.30;99.90;;;;;;483003;245;28028;-75
2021/10/14 08:28:43;;;;;;;11.63;7.47;;;8.30;99.90;;;;;;482483;246;27701;-75
2021/10/14 08:30:46;;;;;;;9.63;7.13;;;8.40;99.90;;;;;;482192;246;27817;-75
2021/10/14 08:32:47;;;;;;;10.17;7.47;;;8.40;99.90;;;;;;482452;246;27882;-76
2021/10/14 08:34:47;;;;;;;11.50;6.43;;;8.50;99.90;;;;;;482751;246;28430;-76
2021/10/14 08:36:48;;;;;;;9.80;7.60;;;8.60;99.90;;;;;;482959;246;28361;-76
2021/10/14 08:38:50;;;;;;;9.30;7.30;;;8.70;99.90;;;;;;483013;246;28670;-76
2021/10/14 08:40:51;;;;;;;11.73;7.00;;;8.80;99.90;;;;;;483008;246;28319;-76
2021/10/14 08:42:52;;;;;;;14.63;8.23;;;8.80;99.90;;;;;;483012;246;27671;-76
2021/10/14 08:44:53;;;;;;;14.53;7.70;;;8.90;99.90;;;;;;483004;246;27924;-76
2021/10/14 08:46:55;;;;;;;11.97;6.97;;;8.90;99.90;;;;;;482967;246;28011;-76
2021/10/14 08:48:56;;;;;;;11.27;8.27;;;9.00;99.90;;;;;;482945;246;27671;-76
2021/10/14 08:50:57;;;;;;;11.93;7.30;;;9.10;99.90;;;;;;482956;246;27876;-76
2021/10/14 08:52:58;;;;;;;12.73;7.17;;;9.10;99.90;;;;;;482946;246;28005;-76
2021/10/14 08:55:00;;;;;;;10.40;7.03;;;9.10;99.90;;;;;;482962;245;27921;-76
2021/10/14 08:57:01;;;;;;;10.97;7.47;;;9.20;99.90;;;;;;482973;246;27604;-76
2021/10/14 08:59:02;;;;;;;12.03;7.37;;;9.40;99.90;;;;;;482951;246;28208;-76
2021/10/14 09:01:03;;;;;;;9.80;6.57;;;9.40;99.90;;;;;;482940;246;28585;-76
2021/10/14 09:03:05;;;;;;;8.67;6.80;;;9.40;99.90;;;;;;482956;245;28453;-75
2021/10/14 09:05:09;;;;;;;8.57;6.77;;;9.50;99.90;;;;;;482978;246;28533;-76
2021/10/14 09:07:07;;;;;;;8.00;6.60;;;9.50;99.90;;;;;;482899;245;28418;-76
2021/10/14 09:09:08;;;;;;;9.53;6.20;;;9.60;99.90;;;;;;483241;246;28446;-76
2021/10/14 09:11:10;;;;;;;10.40;6.93;;;9.70;99.90;;;;;;483273;246;28442;-76
2021/10/14 09:13:11;;;;;;;8.10;6.47;;;9.80;99.90;;;;;;483237;246;27989;-76
2021/10/14 09:15:12;;;;;;;7.70;5.83;;;9.80;99.90;;;;;;483268;246;28015;-76
2021/10/14 09:17:13;;;;;;;9.07;5.90;;;9.90;99.90;;;;;;483279;246;28378;-77
2021/10/14 09:19:15;;;;;;;9.80;6.17;;;10.00;99.90;;;;;;483244;246;28020;-76
2021/10/14 09:21:16;;;;;;;11.20;6.73;;;10.00;99.90;;;;;;483181;246;27514;-76
2021/10/14 09:23:21;;;;;;;7.20;6.03;;;10.00;99.90;;;;;;483124;246;28025;-76
2021/10/14 09:25:18;;;;;;;8.37;6.87;;;9.90;99.90;;;;;;482761;246;28095;-76
2021/10/14 09:27:20;;;;;;;11.03;7.50;;;9.90;99.90;;;;;;483104;246;27917;-76
2021/10/14 09:29:21;;;;;;;11.47;6.80;;;9.80;99.90;;;;;;483077;246;28139;-76
2021/10/14 09:31:22;;;;;;;10.87;6.87;;;9.90;99.90;;;;;;483049;246;28321;-76
2021/10/14 09:33:23;;;;;;;9.60;6.87;;;9.80;99.90;;;;;;483051;246;28348;-76
2021/10/14 09:35:25;;;;;;;8.90;6.73;;;9.90;99.90;;;;;;483121;246;28488;-76
2021/10/14 09:37:26;;;;;;;8.90;6.97;;;10.00;99.90;;;;;;483066;246;28352;-76
2021/10/14 09:39:27;;;;;;;8.30;6.50;;;10.20;99.90;;;;;;483110;246;27963;-76
2021/10/14 09:41:28;;;;;;;11.97;7.00;;;10.30;99.90;;;;;;483351;246;27870;-76
2021/10/14 09:43:30;;;;;;;12.27;8.10;;;10.30;99.90;;;;;;483356;246;27911;-76
2021/10/14 09:45:31;;;;;;;9.27;6.00;;;10.40;99.90;;;;;;483346;246;28049;-76
2021/10/14 09:47:32;;;;;;;9.63;6.23;;;10.40;99.90;;;;;;483311;245;27650;-76
2021/10/14 09:49:34;;;;;;;11.97;7.00;;;10.50;99.90;;;;;;483324;246;27989;-77
2021/10/14 09:51:35;;;;;;;9.30;6.80;;;10.50;99.90;;;;;;483206;246;27644;-76
2021/10/14 09:53:36;;;;;;;7.67;6.27;;;10.50;99.90;;;;;;483195;246;28169;-76
2021/10/14 09:55:37;;;;;;;7.20;6.00;;;10.40;99.90;;;;;;483171;246;28426;-76
2021/10/14 09:57:38;;;;;;;7.60;6.00;;;10.50;99.90;;;;;;483205;246;28201;-76
2021/10/14 09:59:40;;;;;;;7.63;5.13;;;10.50;99.90;;;;;;483109;246;28734;-76
2021/10/14 10:01:42;;;;;;;7.03;5.63;;;;;;;;;;483020;246;27974;-76
2021/10/14 10:03:43;;;;;;;6.70;5.20;;;10.70;99.90;;;;;;483130;246;27869;-76
2021/10/14 10:05:44;;;;;;;7.67;6.20;;;10.70;99.90;;;;;;483169;246;28195;-76
2021/10/14 10:07:46;;;;;;;6.30;5.37;;;10.80;99.90;;;;;;483219;246;28208;-77
2021/10/14 10:09:47;;;;;;;10.33;6.10;;;10.80;99.90;;;;;;483189;245;27986;-76
2021/10/14 10:11:48;;;;;;;9.83;5.77;;;10.80;99.90;;;;;;483190;246;28026;-76
2021/10/14 10:13:52;;;;;;;7.07;5.27;;;10.90;99.90;;;;;;483135;246;28245;-76
2021/10/14 10:15:53;;;;;;;8.17;5.57;;;11.00;99.90;;;;;;483133;246;28346;-76
2021/10/14 10:17:55;;;;;;;6.10;5.23;;;11.10;99.90;;;;;;483197;246;28149;-77
2021/10/14 10:19:57;;;;;;;8.63;5.90;;;;;;;;;;483157;246;28348;-77
2021/10/14 10:21:58;;;;;;;7.83;6.00;;;11.10;99.90;;;;;;483164;246;27540;-76
2021/10/14 10:24:00;;;;;;;9.30;5.63;;;11.00;99.90;;;;;;483212;246;28736;-77
2021/10/14 10:26:01;;;;;;;6.77;5.27;;;10.90;99.90;;;;;;483185;246;28133;-76
2021/10/14 10:28:05;;;;;;;9.77;5.20;;;10.90;99.90;;;;;;483163;246;28208;-77
2021/10/14 10:30:03;;;;;;;8.50;5.50;;;11.00;99.90;;;;;;482892;246;28366;-77
2021/10/14 10:32:05;;;;;;;8.33;5.73;;;11.10;99.90;;;;;;483226;246;28396;-76
2021/10/14 10:34:06;;;;;;;7.00;4.80;;;11.10;99.90;;;;;;483123;246;28139;-77
2021/10/14 10:36:07;;;;;;;8.77;5.00;;;11.20;99.90;;;;;;483118;245;28136;-77
2021/10/14 10:38:08;;;;;;;5.23;4.33;;;11.30;99.90;;;;;;483224;246;28231;-76